Time;durP1;ratioP1;P1;durP2;ratioP2;P2;SDS_P1;SDS_P2;PMS_P1;PMS_P2;Temp;Humidity;BMP_temperature;BMP_pressure;BME280_temperature;BME280_humidity;BME280_pressure;Samples;Min_cycle;Max_cycle;Signal;HPM_P1;HPM_P2
2022/11/03 00:01:34;;;;;;;10.10;6.53;;;6.10;93.00;;;;;;5054082;28;20286;-66
2022/11/03 00:04:01;;;;;;;10.18;5.63;;;6.10;93.20;;;;;;5053879;28;20224;-66
2022/11/03 00:06:29;;;;;;;11.55;6.03;;;6.20;93.40;;;;;;5054000;28;20194;-66
2022/11/03 00:08:59;;;;;;;11.00;6.53;;;6.30;93.50;;;;;;5053248;28;20725;-66
2022/11/03 00:11:28;;;;;;;12.32;5.53;;;6.40;93.50;;;;;;5053807;28;20671;-66
2022/11/03 00:13:58;;;;;;;11.32;5.07;;;6.40;93.60;;;;;;5052902;28;20209;-66
2022/11/03 00:16:26;;;;;;;7.82;5.38;;;6.30;93.20;;;;;;5053516;28;20230;-66
2022/11/03 00:18:55;;;;;;;8.05;5.07;;;6.30;93.30;;;;;;5053283;28;20225;-66
2022/11/03 00:21:23;;;;;;;5.03;4.50;;;6.30;92.70;;;;;;5053526;28;20201;-66
2022/11/03 00:23:51;;;;;;;8.13;4.50;;;6.30;92.80;;;;;;5053026;28;20193;-71
2022/11/03 00:26:21;;;;;;;6.30;4.50;;;6.30;92.90;;;;;;5053475;28;20257;-67
2022/11/03 00:28:50;;;;;;;4.90;4.03;;;6.40;92.90;;;;;;5052460;28;20186;-66
2022/11/03 00:31:18;;;;;;;13.73;5.25;;;6.40;93.00;;;;;;5053408;28;20194;-66
2022/11/03 00:33:50;;;;;;;7.22;4.43;;;6.40;93.00;;;;;;5052849;28;20190;-66
2022/11/03 00:36:21;;;;;;;5.30;4.13;;;6.50;93.20;;;;;;5053128;28;20186;-66
2022/11/03 00:38:50;;;;;;;6.88;4.22;;;6.50;93.10;;;;;;5053137;28;20228;-67
2022/11/03 00:41:19;;;;;;;6.68;4.70;;;6.50;92.80;;;;;;5052907;28;20270;-66
2022/11/03 00:43:48;;;;;;;6.78;4.20;;;6.50;92.60;;;;;;5053275;28;20195;-66
2022/11/03 00:46:20;;;;;;;6.72;5.15;;;6.50;92.50;;;;;;5052556;28;20586;-66
2022/11/03 00:48:49;;;;;;;6.15;4.40;;;6.40;91.80;;;;;;5053038;28;20737;-66
2022/11/03 00:51:20;;;;;;;6.70;4.93;;;6.30;92.40;;;;;;5052995;28;20194;-67
2022/11/03 00:53:54;;;;;;;8.10;4.85;;;6.30;92.30;;;;;;5050230;28;20531;-66
2022/11/03 00:56:24;;;;;;;7.85;4.93;;;6.30;92.20;;;;;;5052420;28;20252;-67
2022/11/03 00:58:53;;;;;;;6.72;5.35;;;6.30;92.30;;;;;;5052888;28;20214;-66
2022/11/03 01:01:22;;;;;;;7.25;4.80;;;6.30;92.70;;;;;;5052593;28;20236;-66
2022/11/03 01:09:24;;;;;;;7.07;4.57;;;6.30;92.10;;;;;;5052576;28;20277;-66
2022/11/03 01:12:05;;;;;;;7.07;4.70;;;6.30;92.30;;;;;;5052440;28;20190;-66
2022/11/03 01:14:35;;;;;;;7.15;4.10;;;6.30;92.30;;;;;;5052659;28;20198;-66
2022/11/03 01:17:05;;;;;;;6.97;3.97;;;6.30;92.50;;;;;;5052268;28;20311;-66
2022/11/03 01:19:33;;;;;;;6.22;4.50;;;6.30;92.80;;;;;;5052556;28;20253;-66
2022/11/03 01:22:02;;;;;;;6.50;4.20;;;6.30;92.80;;;;;;5052092;28;20190;-66
2022/11/03 01:24:30;;;;;;;10.63;5.10;;;6.40;92.80;;;;;;5052479;28;20221;-66
2022/11/03 01:26:58;;;;;;;6.18;4.35;;;6.30;92.40;;;;;;5052255;28;20220;-66
2022/11/03 01:29:25;;;;;;;6.25;4.57;;;6.30;92.20;;;;;;5052531;28;20197;-66
2022/11/03 01:31:55;;;;;;;5.97;4.13;;;6.20;91.70;;;;;;5052243;28;20550;-66
2022/11/03 01:34:24;;;;;;;5.05;3.55;;;6.20;91.70;;;;;;5052536;28;20186;-66
2022/11/03 01:36:52;;;;;;;5.80;3.40;;;6.00;91.60;;;;;;5051840;28;20709;-66
2022/11/03 01:39:22;;;;;;;5.10;3.67;;;5.90;91.30;;;;;;5052191;28;20676;-66
2022/11/03 01:41:54;;;;;;;5.22;3.60;;;5.80;91.60;;;;;;5051184;28;20202;-67
2022/11/03 01:44:29;;;;;;;4.85;3.88;;;5.80;92.00;;;;;;5052455;28;20225;-66
2022/11/03 01:47:06;;;;;;;7.78;4.28;;;5.80;92.10;;;;;;5051791;28;20189;-66
2022/11/03 01:49:40;;;;;;;6.15;4.32;;;5.80;92.10;;;;;;5052134;28;20202;-66
2022/11/03 01:52:16;;;;;;;6.65;4.03;;;5.80;92.50;;;;;;5051898;28;20195;-66
2022/11/03 01:55:01;;;;;;;5.88;3.33;;;5.80;92.70;;;;;;5052152;28;20190;-66
2022/11/03 01:57:35;;;;;;;4.55;3.13;;;5.80;92.60;;;;;;5052129;28;20545;-66
2022/11/03 02:00:04;;;;;;;6.40;3.30;;;5.80;92.30;;;;;;5052300;28;20317;-66
2022/11/03 02:02:31;;;;;;;4.25;3.85;;;5.80;92.00;;;;;;5051530;28;20217;-66
2022/11/03 02:05:01;;;;;;;5.35;4.15;;;5.80;91.60;;;;;;5052169;28;20652;-66
2022/11/03 02:07:35;;;;;;;5.15;3.90;;;5.80;91.80;;;;;;5051834;28;20182;-66
2022/11/03 02:10:05;;;;;;;6.43;3.92;;;5.80;92.00;;;;;;5052164;28;20190;-65
2022/11/03 02:12:33;;;;;;;6.50;3.85;;;5.80;92.10;;;;;;5049513;28;20222;-66
2022/11/03 02:15:06;;;;;;;5.55;3.88;;;5.70;91.70;;;;;;5051793;28;20194;-66
2022/11/03 02:17:38;;;;;;;7.05;4.00;;;5.60;91.90;;;;;;5051573;28;20226;-66
2022/11/03 02:20:10;;;;;;;4.72;3.50;;;5.60;92.10;;;;;;5052011;28;20218;-66
2022/11/03 02:23:08;;;;;;;4.30;3.85;;;5.60;92.20;;;;;;5051655;28;20191;-66
2022/11/03 02:25:42;;;;;;;7.35;3.80;;;5.60;91.80;;;;;;5051866;28;20198;-66
2022/11/03 02:28:15;;;;;;;8.07;3.70;;;5.60;91.60;;;;;;5051536;28;20186;-72
2022/11/03 02:30:46;;;;;;;4.45;3.53;;;5.50;91.30;;;;;;5051451;28;20597;-66
2022/11/03 02:33:29;;;;;;;7.20;3.60;;;5.50;91.80;;;;;;5051811;28;20186;-66
2022/11/03 02:36:00;;;;;;;4.60;3.10;;;5.40;91.90;;;;;;5051512;28;20197;-66
2022/11/03 02:38:30;;;;;;;5.35;4.20;;;5.40;92.10;;;;;;5051563;28;20198;-66
2022/11/03 02:41:03;;;;;;;7.85;3.70;;;5.40;92.20;;;;;;5051426;28;20218;-66
2022/11/03 02:43:31;;;;;;;4.60;3.28;;;5.40;92.50;;;;;;5051425;28;20205;-66
2022/11/03 02:46:00;;;;;;;4.88;3.35;;;5.40;92.60;;;;;;5051226;28;20649;-66
2022/11/03 02:48:30;;;;;;;6.15;3.45;;;5.50;92.60;;;;;;5051696;28;20233;-66
2022/11/03 02:50:57;;;;;;;5.35;3.60;;;5.50;92.80;;;;;;5051318;28;20187;-66
2022/11/03 02:53:27;;;;;;;5.15;3.60;;;5.60;92.90;;;;;;5054594;28;20272;-66
2022/11/03 02:56:07;;;;;;;4.40;3.53;;;5.50;92.90;;;;;;5054900;28;20187;-66
2022/11/03 02:58:40;;;;;;;4.05;3.00;;;5.50;92.80;;;;;;5055090;28;20244;-66
2022/11/03 03:01:17;;;;;;;5.60;2.97;;;5.60;92.70;;;;;;5054737;28;20194;-66
2022/11/03 03:03:53;;;;;;;7.90;5.38;;;5.50;92.80;;;;;;5055527;28;20194;-66
2022/11/03 03:06:25;;;;;;;7.13;4.07;;;5.50;93.10;;;;;;5054870;28;20193;-66
2022/11/03 03:08:56;;;;;;;5.45;4.05;;;5.50;93.30;;;;;;5055021;28;20194;-66
2022/11/03 03:11:38;;;;;;;6.10;3.80;;;5.50;93.50;;;;;;5054744;28;20198;-66
2022/11/03 03:14:14;;;;;;;5.50;5.00;;;5.50;93.20;;;;;;5054820;28;20716;-66
2022/11/03 03:16:56;;;;;;;6.43;4.05;;;5.40;93.40;;;;;;5054566;28;20224;-66
2022/11/03 03:19:38;;;;;;;6.35;3.53;;;5.40;93.50;;;;;;5054709;28;20683;-68
2022/11/03 03:22:14;;;;;;;4.50;3.30;;;5.40;93.60;;;;;;5054940;28;20632;-66
2022/11/03 03:24:50;;;;;;;5.43;3.67;;;5.40;93.80;;;;;;5054104;28;20233;-66
2022/11/03 03:27:26;;;;;;;5.95;4.03;;;5.40;94.20;;;;;;5054479;28;20222;-67
2022/11/03 03:29:58;;;;;;;4.47;3.47;;;5.30;94.60;;;;;;5054314;28;20244;-66
2022/11/03 03:32:28;;;;;;;5.05;3.72;;;5.30;94.40;;;;;;5054740;28;20194;-66
2022/11/03 03:34:58;;;;;;;5.00;3.58;;;5.30;94.30;;;;;;5052258;28;20190;-66
2022/11/03 03:37:29;;;;;;;4.47;3.55;;;5.30;94.30;;;;;;5054737;28;20194;-65
2022/11/03 03:40:00;;;;;;;6.07;3.50;;;5.30;94.30;;;;;;5054090;28;20229;-66
2022/11/03 03:42:31;;;;;;;4.45;3.85;;;5.30;94.00;;;;;;5054504;28;20241;-66
2022/11/03 03:44:59;;;;;;;7.55;3.58;;;5.30;93.70;;;;;;5054315;28;20190;-66
2022/11/03 03:47:30;;;;;;;6.80;4.30;;;5.30;93.70;;;;;;5054512;28;20194;-66
2022/11/03 03:49:57;;;;;;;5.40;3.53;;;5.20;93.10;;;;;;5053818;28;20198;-66
2022/11/03 03:52:25;;;;;;;5.57;3.60;;;5.20;92.80;;;;;;5054455;28;20568;-66
2022/11/03 03:54:56;;;;;;;4.55;3.63;;;5.20;92.80;;;;;;5054229;28;20203;-66
2022/11/03 03:57:26;;;;;;;6.15;4.82;;;5.20;93.10;;;;;;5034478;28;20297;-66
2022/11/03 03:59:56;;;;;;;7.55;4.05;;;5.20;93.00;;;;;;5034048;28;20215;-66
2022/11/03 04:02:23;;;;;;;4.70;3.55;;;5.20;93.00;;;;;;5053756;28;20186;-66
2022/11/03 04:04:51;;;;;;;8.25;5.32;;;5.20;92.90;;;;;;5053293;28;20664;-66
2022/11/03 04:10:08;;;;;;;5.20;3.60;;;5.20;93.20;;;;;;5054169;28;20561;-72
2022/11/03 04:23:36;;;;;;;5.65;4.25;;;5.10;91.90;;;;;;5053833;28;20193;-66
2022/11/03 04:26:11;;;;;;;4.35;3.25;;;4.90;91.70;;;;;;5053291;28;20273;-67
2022/11/03 04:28:39;;;;;;;5.05;3.60;;;4.70;92.10;;;;;;5053823;28;20268;-66
2022/11/03 04:31:19;;;;;;;4.05;3.40;;;4.70;92.10;;;;;;5053352;28;20647;-65
2022/11/03 04:33:49;;;;;;;8.18;4.10;;;4.70;92.30;;;;;;5054139;28;20531;-67
2022/11/03 04:36:19;;;;;;;4.20;3.40;;;4.80;92.20;;;;;;5053052;28;20193;-66
2022/11/03 04:38:50;;;;;;;4.78;3.90;;;4.80;92.40;;;;;;5053210;28;20186;-70
2022/11/03 04:41:25;;;;;;;6.03;4.53;;;4.80;92.60;;;;;;5053104;28;20198;-66
2022/11/03 04:43:53;;;;;;;4.25;3.55;;;4.70;92.80;;;;;;5052879;28;20594;-66
2022/11/03 04:46:27;;;;;;;8.38;6.20;;;4.70;93.00;;;;;;5053509;28;20194;-66
2022/11/03 04:48:57;;;;;;;6.78;4.88;;;4.60;93.50;;;;;;5053030;28;20189;-65
2022/11/03 04:51:29;;;;;;;4.93;4.28;;;4.60;93.60;;;;;;5053372;28;20291;-66
2022/11/03 04:54:03;;;;;;;9.18;5.05;;;4.70;93.70;;;;;;5052922;28;20218;-65
2022/11/03 04:56:32;;;;;;;5.50;4.70;;;4.70;93.80;;;;;;5053392;28;20194;-65
2022/11/03 04:59:01;;;;;;;11.32;4.70;;;4.70;93.60;;;;;;5052835;28;20198;-66
2022/11/03 05:01:31;;;;;;;5.38;4.20;;;4.70;93.70;;;;;;5052178;28;20649;-65
2022/11/03 05:03:58;;;;;;;6.15;4.95;;;4.70;93.60;;;;;;5053151;28;20197;-66
2022/11/03 05:06:28;;;;;;;4.82;4.15;;;4.70;93.50;;;;;;5052712;28;20649;-65
2022/11/03 05:08:58;;;;;;;7.28;5.35;;;4.60;93.30;;;;;;5053002;28;20720;-66
2022/11/03 05:11:31;;;;;;;6.15;5.50;;;4.60;93.50;;;;;;5053106;28;20278;-66
2022/11/03 05:14:01;;;;;;;7.68;4.88;;;4.70;93.50;;;;;;5053021;28;20194;-65
2022/11/03 05:16:33;;;;;;;6.03;4.50;;;4.70;93.50;;;;;;5052013;28;20218;-66
2022/11/03 05:19:01;;;;;;;5.47;4.15;;;4.70;93.80;;;;;;5052980;28;20274;-66
2022/11/03 05:21:30;;;;;;;6.80;4.78;;;4.70;94.10;;;;;;5052671;28;20672;-66
2022/11/03 05:24:02;;;;;;;8.15;6.20;;;4.70;94.60;;;;;;5052905;28;20193;-66
2022/11/03 05:26:33;;;;;;;11.90;8.43;;;4.80;95.00;;;;;;5052245;28;20182;-65
2022/11/03 05:29:03;;;;;;;8.10;6.20;;;4.80;95.20;;;;;;5053071;28;20202;-65
2022/11/03 05:31:35;;;;;;;5.45;4.07;;;4.80;94.40;;;;;;5052300;28;20210;-66
2022/11/03 05:34:12;;;;;;;5.82;5.07;;;4.70;94.30;;;;;;5052738;28;20194;-65
2022/11/03 05:36:40;;;;;;;12.55;9.13;;;4.70;94.00;;;;;;5052987;28;20621;-67
2022/11/03 05:39:26;;;;;;;16.48;10.35;;;4.60;93.90;;;;;;5052561;28;20196;-66
2022/11/03 05:41:54;;;;;;;12.18;10.20;;;4.50;93.80;;;;;;5052327;28;20186;-66
2022/11/03 05:44:29;;;;;;;11.18;7.85;;;4.60;93.90;;;;;;5052720;28;20217;-66
2022/11/03 05:46:59;;;;;;;10.00;6.22;;;4.60;94.50;;;;;;5052246;28;20185;-66
2022/11/03 05:49:27;;;;;;;8.02;6.13;;;4.50;94.90;;;;;;5052635;28;20198;-66
2022/11/03 05:51:55;;;;;;;8.50;5.50;;;4.40;95.30;;;;;;5052258;28;20244;-65
2022/11/03 05:54:27;;;;;;;7.70;5.35;;;4.40;96.10;;;;;;5052511;28;20653;-65
2022/11/03 05:56:57;;;;;;;6.05;4.45;;;4.50;95.50;;;;;;5051959;28;20179;-66
2022/11/03 05:59:28;;;;;;;8.13;5.50;;;4.60;96.10;;;;;;5052659;28;20559;-66
2022/11/03 06:02:01;;;;;;;11.15;6.70;;;4.70;96.10;;;;;;5052227;28;20277;-66
2022/11/03 06:04:36;;;;;;;8.98;5.57;;;4.70;96.20;;;;;;5052687;28;20194;-66
2022/11/03 06:07:23;;;;;;;6.88;5.68;;;4.60;96.20;;;;;;5051738;28;20189;-66
2022/11/03 06:09:52;;;;;;;9.35;6.43;;;4.60;96.60;;;;;;5052434;28;20222;-66
2022/11/03 06:12:22;;;;;;;11.82;7.28;;;4.60;96.20;;;;;;5052075;28;20186;-66
2022/11/03 06:14:51;;;;;;;10.27;6.57;;;4.60;96.30;;;;;;5049281;28;20221;-66
2022/11/03 06:17:24;;;;;;;10.60;6.28;;;4.60;96.90;;;;;;5050127;28;20313;-66
2022/11/03 06:19:56;;;;;;;12.43;8.02;;;4.60;96.90;;;;;;5048104;28;20221;-66
2022/11/03 06:22:25;;;;;;;8.43;5.72;;;4.60;97.40;;;;;;5050175;28;20273;-66
2022/11/03 06:24:59;;;;;;;15.88;9.73;;;4.50;98.10;;;;;;5050349;28;20195;-66
2022/11/03 06:30:24;;;;;;;17.42;9.57;;;4.70;98.80;;;;;;5053960;28;20641;-67
2022/11/03 06:32:55;;;;;;;15.88;10.90;;;4.90;99.30;;;;;;5054133;28;20186;-66
2022/11/03 06:35:23;;;;;;;11.75;8.88;;;5.10;99.60;;;;;;5054045;28;20198;-67
2022/11/03 06:37:52;;;;;;;9.88;7.25;;;5.40;99.80;;;;;;5053573;28;20198;-68
2022/11/03 06:40:40;;;;;;;10.77;7.63;;;5.60;99.90;;;;;;5053865;28;20230;-66
2022/11/03 06:43:35;;;;;;;9.10;6.57;;;5.80;99.90;;;;;;5053895;28;20210;-66
2022/11/03 06:46:12;;;;;;;7.65;5.70;;;6.00;99.90;;;;;;5054013;28;20222;-66
2022/11/03 06:48:42;;;;;;;12.50;6.60;;;6.00;99.50;;;;;;5054756;28;20194;-66
2022/11/03 06:51:29;;;;;;;11.02;6.03;;;6.10;99.90;;;;;;5054222;28;20198;-66
2022/11/03 06:54:00;;;;;;;8.55;6.50;;;6.20;99.40;;;;;;5049502;28;20649;-67
2022/11/03 06:56:31;;;;;;;8.75;7.18;;;6.50;99.90;;;;;;5053710;28;20244;-67
2022/11/03 06:58:58;;;;;;;12.00;9.23;;;6.80;99.30;;;;;;5054002;28;20197;-66
2022/11/03 07:01:31;;;;;;;12.27;9.13;;;7.00;97.70;;;;;;5049784;28;20222;-71
2022/11/03 07:04:01;;;;;;;11.60;9.30;;;7.00;97.80;;;;;;5052338;28;20187;-67
2022/11/03 07:06:31;;;;;;;11.38;8.50;;;7.20;97.90;;;;;;5053129;28;20265;-67
2022/11/03 07:09:00;;;;;;;11.93;9.23;;;7.40;98.00;;;;;;5052600;28;20191;-66
2022/11/03 07:11:30;;;;;;;9.73;7.72;;;7.50;97.40;;;;;;5053527;28;20236;-66
2022/11/03 07:13:58;;;;;;;9.60;7.18;;;7.70;96.70;;;;;;5050946;28;20659;-68
2022/11/03 07:16:30;;;;;;;14.65;8.13;;;8.00;96.40;;;;;;5052046;28;20249;-67
2022/11/03 07:19:06;;;;;;;7.53;4.82;;;8.40;96.00;;;;;;5053380;28;20213;-66
2022/11/03 07:21:38;;;;;;;5.68;3.53;;;9.00;95.90;;;;;;5050360;28;20214;-66
2022/11/03 07:24:18;;;;;;;5.25;4.05;;;9.60;94.90;;;;;;5046792;28;20244;-67
2022/11/03 07:26:45;;;;;;;4.57;3.40;;;10.10;93.70;;;;;;5048682;28;20660;-67
2022/11/03 07:29:22;;;;;;;6.70;4.47;;;10.30;92.20;;;;;;5052272;28;20198;-67
2022/11/03 07:31:52;;;;;;;5.10;4.30;;;10.70;91.30;;;;;;5051913;28;20186;-67
2022/11/03 07:34:33;;;;;;;9.82;6.00;;;10.80;90.80;;;;;;5051817;28;20605;-69
2022/11/03 07:37:03;;;;;;;7.40;5.93;;;10.90;89.00;;;;;;5051996;28;20589;-68
2022/11/03 07:39:38;;;;;;;8.88;7.97;;;11.00;90.10;;;;;;5048298;28;20644;-69
2022/11/03 07:42:17;;;;;;;8.40;6.65;;;11.30;90.20;;;;;;5052206;28;20727;-67
2022/11/03 07:44:45;;;;;;;11.32;6.57;;;11.70;88.50;;;;;;5048130;28;20232;-68
2022/11/03 07:47:14;;;;;;;11.30;5.57;;;12.20;87.90;;;;;;5052433;28;20186;-67
2022/11/03 07:49:43;;;;;;;7.65;5.07;;;12.60;85.40;;;;;;5053427;28;20286;-67
2022/11/03 07:52:14;;;;;;;6.90;4.97;;;13.00;84.50;;;;;;5054412;28;20190;-67
2022/11/03 07:54:41;;;;;;;5.53;4.63;;;13.30;83.00;;;;;;5054520;28;20567;-67
2022/11/03 07:57:15;;;;;;;6.38;5.40;;;13.50;80.80;;;;;;5054362;28;20301;-67
2022/11/03 07:59:46;;;;;;;8.15;5.10;;;13.70;81.10;;;;;;5053978;28;20233;-70
2022/11/03 08:02:29;;;;;;;9.80;5.37;;;14.00;79.10;;;;;;5050433;28;20192;-68
2022/11/03 08:04:58;;;;;;;8.17;5.00;;;14.50;79.20;;;;;;5053174;28;20441;-67
2022/11/03 08:07:26;;;;;;;5.70;4.93;;;14.80;76.20;;;;;;5052749;28;20509;-67
2022/11/03 08:09:54;;;;;;;11.60;6.70;;;15.30;77.00;;;;;;5052766;28;20932;-67
2022/11/03 08:12:21;;;;;;;10.87;6.77;;;16.00;75.00;;;;;;5052572;28;20822;-68
2022/11/03 08:14:48;;;;;;;10.33;5.87;;;16.60;73.10;;;;;;5052570;28;20506;-67
2022/11/03 08:17:16;;;;;;;12.47;5.47;;;17.30;70.40;;;;;;5052508;28;20865;-68
2022/11/03 08:19:43;;;;;;;10.33;4.60;;;18.00;69.70;;;;;;5052482;28;20453;-67
2022/11/03 08:22:11;;;;;;;6.67;4.80;;;18.30;65.50;;;;;;5051528;28;20488;-67
2022/11/03 08:24:38;;;;;;;8.73;5.23;;;18.70;63.20;;;;;;5052698;28;20507;-67
2022/11/03 08:27:05;;;;;;;5.63;3.83;;;19.20;61.20;;;;;;5048938;28;20859;-68
2022/11/03 08:29:32;;;;;;;4.50;3.33;;;19.60;62.20;;;;;;5052603;28;20440;-67
2022/11/03 08:31:59;;;;;;;5.33;3.57;;;20.10;59.50;;;;;;5051477;28;20814;-67
2022/11/03 08:34:26;;;;;;;6.63;3.57;;;20.80;59.10;;;;;;5052061;28;20498;-68
2022/11/03 08:36:53;;;;;;;6.83;3.10;;;21.40;57.00;;;;;;5052408;28;20460;-68
2022/11/03 08:39:22;;;;;;;10.40;3.10;;;21.80;54.00;;;;;;5051971;28;20437;-68
2022/11/03 08:41:49;;;;;;;8.73;4.77;;;22.20;55.20;;;;;;5051592;28;20480;-68
2022/11/03 08:44:16;;;;;;;6.40;4.50;;;22.30;51.10;;;;;;5052337;28;20495;-68
2022/11/03 08:46:43;;;;;;;6.63;3.50;;;22.30;52.00;;;;;;5052413;28;20798;-68
2022/11/03 08:49:10;;;;;;;7.60;2.97;;;22.90;51.20;;;;;;5049477;28;20935;-67
2022/11/03 08:51:37;;;;;;;5.93;2.50;;;23.40;49.90;;;;;;5051761;28;20494;-67
2022/11/03 08:54:04;;;;;;;6.70;2.77;;;23.50;47.20;;;;;;5051924;28;20475;-67
2022/11/03 08:56:33;;;;;;;5.43;3.77;;;23.20;48.50;;;;;;5051692;28;20484;-69
2022/11/03 08:59:02;;;;;;;6.43;3.33;;;23.50;47.50;;;;;;5051667;28;20473;-68
2022/11/03 09:01:30;;;;;;;7.47;2.90;;;23.60;47.10;;;;;;5051349;28;20512;-67
2022/11/03 09:03:57;;;;;;;4.30;2.50;;;24.00;45.90;;;;;;5051501;28;20441;-68
2022/11/03 09:06:24;;;;;;;3.47;2.60;;;24.40;44.00;;;;;;5051487;28;20904;-68
2022/11/03 09:08:51;;;;;;;7.47;3.00;;;24.60;42.90;;;;;;5051414;28;20434;-66
2022/11/03 09:11:18;;;;;;;3.87;2.43;;;24.90;39.80;;;;;;5051765;28;20467;-66
2022/11/03 09:13:46;;;;;;;6.03;3.20;;;24.80;40.70;;;;;;5049753;28;20705;-66
2022/11/03 09:16:13;;;;;;;5.83;2.87;;;25.10;40.30;;;;;;5051010;28;20897;-68
2022/11/03 09:18:40;;;;;;;4.00;2.33;;;25.80;37.60;;;;;;5051583;28;20499;-68
2022/11/03 09:21:08;;;;;;;4.70;2.93;;;26.50;37.40;;;;;;5051343;28;20567;-67
2022/11/03 09:23:35;;;;;;;4.80;2.97;;;27.00;35.50;;;;;;5051435;28;20455;-67
2022/11/03 09:26:02;;;;;;;4.80;2.70;;;28.00;33.00;;;;;;5051110;28;20476;-66
2022/11/03 09:28:29;;;;;;;9.13;3.10;;;28.60;31.80;;;;;;5051334;28;20903;-66
2022/11/03 09:30:57;;;;;;;5.03;2.63;;;29.30;29.30;;;;;;5051382;28;20444;-67
2022/11/03 09:33:24;;;;;;;3.37;2.67;;;29.50;29.00;;;;;;5050952;28;20453;-67
2022/11/03 09:35:51;;;;;;;4.47;3.03;;;29.80;28.30;;;;;;5051201;28;20444;-68
2022/11/03 09:38:18;;;;;;;4.87;2.90;;;30.10;28.40;;;;;;5051263;28;20445;-69
2022/11/03 09:40:46;;;;;;;5.47;2.80;;;30.60;26.90;;;;;;5051225;28;20483;-67
2022/11/03 09:43:13;;;;;;;4.27;2.80;;;30.40;27.00;;;;;;5051015;28;20526;-67
2022/11/03 09:45:40;;;;;;;5.00;2.87;;;31.00;27.40;;;;;;5051219;28;20439;-67
2022/11/03 09:48:11;;;;;;;8.50;2.77;;;31.50;26.70;;;;;;5051091;28;20498;-67
2022/11/03 09:50:39;;;;;;;4.60;2.97;;;31.80;26.10;;;;;;5050869;28;20476;-68
2022/11/03 09:53:06;;;;;;;8.83;2.83;;;31.50;25.20;;;;;;5050268;28;20942;-67
2022/11/03 09:55:34;;;;;;;7.20;2.80;;;31.40;25.50;;;;;;5051105;28;20931;-67
2022/11/03 09:58:10;;;;;;;5.33;3.00;;;31.90;26.10;;;;;;5050767;28;20792;-68
2022/11/03 10:00:41;;;;;;;5.07;3.40;;;32.50;25.20;;;;;;5051185;28;20444;-67
2022/11/03 10:03:12;;;;;;;4.63;2.60;;;32.80;25.20;;;;;;5053684;28;20444;-67
2022/11/03 10:05:39;;;;;;;4.30;2.97;;;32.80;24.00;;;;;;5055229;28;20914;-67
2022/11/03 10:08:11;;;;;;;4.73;3.60;;;32.60;23.50;;;;;;5055018;28;20495;-67
2022/11/03 10:10:40;;;;;;;6.50;3.53;;;32.20;24.20;;;;;;5054925;28;20445;-67
2022/11/03 10:13:11;;;;;;;11.23;4.03;;;32.30;24.90;;;;;;5054802;28;20477;-67
2022/11/03 10:15:38;;;;;;;4.50;2.57;;;32.70;24.10;;;;;;5054934;28;20448;-67
2022/11/03 10:18:07;;;;;;;5.73;3.13;;;33.00;24.00;;;;;;5055030;28;20460;-67
2022/11/03 10:20:36;;;;;;;6.13;2.73;;;33.90;23.90;;;;;;5051975;28;20437;-67
2022/11/03 10:23:03;;;;;;;3.70;2.63;;;34.90;23.30;;;;;;5054643;28;20447;-68
2022/11/03 10:25:37;;;;;;;5.40;3.30;;;35.40;22.70;;;;;;5054307;28;20958;-67
2022/11/03 10:28:19;;;;;;;5.60;2.23;;;35.50;22.30;;;;;;5051648;28;20440;-67
2022/11/03 10:30:49;;;;;;;4.53;3.33;;;35.70;22.30;;;;;;5054616;28;20463;-68
2022/11/03 10:33:30;;;;;;;5.97;3.10;;;35.60;21.70;;;;;;5054063;28;20437;-68
2022/11/03 10:36:01;;;;;;;7.17;3.50;;;35.50;22.00;;;;;;5054681;28;20436;-68
2022/11/03 10:38:30;;;;;;;4.63;3.23;;;35.40;21.50;;;;;;5054287;28;20756;-67
2022/11/03 10:41:09;;;;;;;6.23;2.97;;;34.40;21.90;;;;;;5054004;28;20472;-68
2022/11/03 10:43:36;;;;;;;4.57;2.73;;;33.10;22.10;;;;;;5054311;28;20443;-67
2022/11/03 10:46:15;;;;;;;5.73;2.77;;;32.20;23.40;;;;;;5054629;28;20919;-67
2022/11/03 10:48:42;;;;;;;4.60;3.03;;;32.50;23.80;;;;;;5052328;28;20841;-68
2022/11/03 10:51:13;;;;;;;6.10;2.60;;;32.70;24.20;;;;;;5054367;28;20493;-67
2022/11/03 10:53:41;;;;;;;4.47;2.67;;;33.10;24.10;;;;;;5054186;28;20451;-68
2022/11/03 10:56:08;;;;;;;5.47;2.63;;;33.30;24.10;;;;;;5053776;28;20452;-67
2022/11/03 10:58:36;;;;;;;4.97;3.50;;;33.70;23.70;;;;;;5054459;28;20519;-68
2022/11/03 11:01:10;;;;;;;3.53;2.60;;;34.40;24.40;;;;;;5050275;28;20527;-67
2022/11/03 11:03:43;;;;;;;5.97;2.83;;;34.80;22.60;;;;;;5050765;28;20444;-67
2022/11/03 11:06:20;;;;;;;4.70;3.03;;;34.60;22.60;;;;;;5051203;28;20974;-67
2022/11/03 11:08:49;;;;;;;5.10;2.80;;;34.50;22.30;;;;;;5053701;28;20528;-68
2022/11/03 11:11:17;;;;;;;5.77;3.60;;;34.90;23.00;;;;;;5053915;28;21005;-68
2022/11/03 11:13:44;;;;;;;5.23;3.30;;;35.40;21.70;;;;;;5053300;28;20451;-68
2022/11/03 11:16:51;;;;;;;6.40;4.03;;;35.70;21.50;;;;;;5053492;28;20861;-67
2022/11/03 11:19:18;;;;;;;5.33;3.67;;;35.70;21.80;;;;;;5049975;28;20449;-68
2022/11/03 11:22:14;;;;;;;6.60;2.70;;;35.70;21.30;;;;;;5053133;28;20479;-68
2022/11/03 11:25:02;;;;;;;5.20;3.50;;;35.80;21.40;;;;;;5051146;28;20515;-67
2022/11/03 11:28:05;;;;;;;7.40;4.70;;;36.60;21.20;;;;;;5052660;28;20437;-68
2022/11/03 11:31:03;;;;;;;4.60;2.80;;;37.20;20.30;;;;;;5052376;28;20436;-67
2022/11/03 11:33:33;;;;;;;4.10;2.73;;;37.30;19.50;;;;;;5052982;28;20842;-68
2022/11/03 11:36:25;;;;;;;4.90;3.40;;;36.70;20.00;;;;;;5053390;28;20445;-68
2022/11/03 11:39:03;;;;;;;5.10;3.00;;;36.40;20.20;;;;;;5046746;28;20798;-68
2022/11/03 11:42:08;;;;;;;4.23;2.93;;;36.20;20.50;;;;;;5053714;28;20524;-68
2022/11/03 11:44:58;;;;;;;3.87;2.50;;;35.90;20.90;;;;;;5054287;28;20467;-68
2022/11/03 11:47:47;;;;;;;4.80;3.13;;;35.50;20.60;;;;;;5054433;28;20445;-67
2022/11/03 11:50:38;;;;;;;8.57;3.43;;;35.10;21.20;;;;;;5054075;28;20479;-68
2022/11/03 11:53:12;;;;;;;6.53;3.03;;;34.40;21.70;;;;;;5054248;28;20825;-68
2022/11/03 11:55:45;;;;;;;8.50;5.23;;;33.90;22.30;;;;;;5052701;28;20441;-67
2022/11/03 11:58:19;;;;;;;5.97;3.70;;;33.50;22.90;;;;;;5053665;28;20437;-67
2022/11/03 12:00:56;;;;;;;8.43;3.87;;;33.50;22.60;;;;;;5053986;28;20451;-68
2022/11/03 12:03:28;;;;;;;6.47;3.57;;;32.70;22.80;;;;;;5054216;28;20433;-67
2022/11/03 12:05:55;;;;;;;5.20;2.80;;;31.50;23.80;;;;;;5053974;28;20491;-67
2022/11/03 12:08:31;;;;;;;3.80;2.27;;;30.40;24.80;;;;;;5053974;28;20444;-67
2022/11/03 12:11:01;;;;;;;3.70;2.20;;;29.50;25.90;;;;;;5053777;28;20441;-67
2022/11/03 12:13:43;;;;;;;4.80;2.53;;;28.80;26.40;;;;;;5053929;28;20806;-67
2022/11/03 12:16:26;;;;;;;4.33;2.87;;;28.20;27.50;;;;;;5053036;28;20480;-66
2022/11/03 12:18:53;;;;;;;4.97;2.63;;;27.70;28.20;;;;;;5053038;28;20499;-66
2022/11/03 12:21:47;;;;;;;9.63;2.97;;;27.50;28.30;;;;;;5052832;28;20448;-66
2022/11/03 12:24:35;;;;;;;7.73;2.97;;;27.30;28.60;;;;;;5052953;28;20429;-66
2022/11/03 12:27:16;;;;;;;4.47;2.60;;;27.00;28.60;;;;;;5053280;28;20491;-66
2022/11/03 12:29:43;;;;;;;6.40;3.10;;;26.80;29.20;;;;;;5053398;28;20461;-67
2022/11/03 12:32:11;;;;;;;4.40;2.70;;;26.70;29.70;;;;;;5053760;28;20477;-66
2022/11/03 12:34:38;;;;;;;7.93;3.87;;;27.00;29.80;;;;;;5053980;28;20464;-66
2022/11/03 12:37:05;;;;;;;5.03;3.20;;;28.20;30.00;;;;;;5054157;28;20432;-66
2022/11/03 12:39:32;;;;;;;4.77;2.60;;;29.30;28.10;;;;;;5053562;28;20552;-67
2022/11/03 12:42:00;;;;;;;5.93;3.00;;;30.30;26.40;;;;;;5049366;28;20794;-67
2022/11/03 12:44:29;;;;;;;4.63;3.00;;;30.70;25.70;;;;;;5051804;28;20445;-66
2022/11/03 12:46:59;;;;;;;5.20;3.00;;;30.00;25.70;;;;;;5051714;28;20445;-69
2022/11/03 12:49:26;;;;;;;5.73;2.60;;;29.80;25.90;;;;;;5053183;28;20902;-73
2022/11/03 12:51:53;;;;;;;4.43;2.83;;;29.50;26.20;;;;;;5052919;28;20480;-66
2022/11/03 12:54:21;;;;;;;6.80;3.10;;;28.80;27.00;;;;;;5053410;28;20526;-67
2022/11/03 12:56:49;;;;;;;5.30;3.10;;;28.30;27.40;;;;;;5053863;28;20519;-66
2022/11/03 12:59:16;;;;;;;4.90;3.33;;;27.40;28.20;;;;;;5053467;28;20491;-67
2022/11/03 13:01:44;;;;;;;7.63;3.50;;;26.50;29.10;;;;;;5053827;28;20487;-68
2022/11/03 13:04:11;;;;;;;5.63;3.60;;;26.00;30.00;;;;;;5053896;28;20433;-66
2022/11/03 13:06:38;;;;;;;6.50;3.40;;;25.40;31.30;;;;;;5053832;28;20444;-67
2022/11/03 13:09:05;;;;;;;6.00;3.60;;;24.80;32.20;;;;;;5053704;28;20502;-66
2022/11/03 13:14:16;;;;;;;4.53;2.97;;;23.90;33.80;;;;;;5053211;28;20789;-66
2022/11/03 13:16:46;;;;;;;6.03;3.43;;;23.40;34.60;;;;;;5053347;28;20829;-66
2022/11/03 13:19:13;;;;;;;5.80;2.87;;;23.00;35.10;;;;;;5053416;28;20498;-66
2022/11/03 13:21:40;;;;;;;4.20;3.07;;;22.50;36.30;;;;;;5053468;28;20441;-66
2022/11/03 13:24:09;;;;;;;10.67;3.30;;;22.10;37.50;;;;;;5053222;28;20931;-66
2022/11/03 13:26:36;;;;;;;6.93;3.27;;;21.60;38.30;;;;;;5053299;28;20432;-66
2022/11/03 13:29:03;;;;;;;7.33;3.17;;;21.20;39.30;;;;;;5053403;28;20449;-66
2022/11/03 13:31:30;;;;;;;6.63;3.60;;;20.80;40.00;;;;;;5053261;28;20490;-66
2022/11/03 13:33:58;;;;;;;11.40;3.60;;;20.50;40.40;;;;;;5053277;28;20491;-66
2022/11/03 13:36:25;;;;;;;7.03;3.33;;;20.20;40.90;;;;;;5053349;28;20783;-66
2022/11/03 13:38:52;;;;;;;8.00;3.13;;;19.90;41.70;;;;;;5053091;28;20498;-66